Terminal Aerodrome Forecast
Issued by NWS Pueblo, CO

Home | Current Version | Previous Version | Text Only | Print | Product List | Glossary On
Versions: 1 2 3 4 5 6 7 8 9 10 11 12 13 14 15 16 17 18 19 20 21 22 23 24 25 26 27 28 29 30 31 32 33 34 35 36 37 38 39 40 41 42
408
FTUS45 KPUB 241130
TAFALS
TAF
KALS 241130Z 2412/2512 06006KT P6SM SCT030
     FM241400 VRB04KT P6SM FEW030 SCT100
     FM242000 27013KT P6SM SCT100
     FM250100 11015KT P6SM SCT100
     FM250300 VRB06KT P6SM FEW100=

USA.gov is the U.S. government's official web portal to all federal, state and local government web resources and services.